createdAt,value
2022-09-26T00:01:40.873Z,96875.36
2022-09-26T00:04:16.332Z,96867.02
2022-09-26T00:06:44.433Z,96863.13
2022-09-26T00:09:14.819Z,96860.89
2022-09-26T00:11:44.827Z,96866.21
2022-09-26T00:14:19.031Z,96868.02
2022-09-26T00:16:47.832Z,96866.98
2022-09-26T00:19:16.366Z,96871.00
2022-09-26T00:21:45.040Z,96872.10
2022-09-26T00:24:13.274Z,96873.44
2022-09-26T00:26:41.231Z,96863.59
2022-09-26T00:29:12.040Z,96856.49
2022-09-26T00:31:43.387Z,96857.05
2022-09-26T00:34:17.805Z,96859.11
2022-09-26T00:36:46.045Z,96860.23
2022-09-26T00:39:15.667Z,96862.51
2022-09-26T00:41:45.065Z,96862.11
2022-09-26T00:44:41.509Z,96860.89
2022-09-26T00:47:40.966Z,96862.35
2022-09-26T00:50:13.437Z,96858.55
2022-09-26T00:53:04.370Z,96850.90
2022-09-26T00:55:38.492Z,96856.92
2022-09-26T00:58:12.202Z,96859.27
2022-09-26T01:00:42.689Z,96856.41
2022-09-26T01:03:10.881Z,96851.89
2022-09-26T01:05:39.086Z,96852.40
2022-09-26T01:08:08.117Z,96849.09
2022-09-26T01:10:37.448Z,96850.77
2022-09-26T01:13:08.652Z,96852.02
2022-09-26T01:15:36.817Z,96853.20
2022-09-26T01:18:07.380Z,96851.70
2022-09-26T01:20:56.524Z,96854.52
2022-09-26T01:23:53.771Z,96852.71
2022-09-26T01:26:40.711Z,96855.10
2022-09-26T01:29:26.580Z,96852.67
2022-09-26T01:32:48.946Z,96854.41
2022-09-26T01:35:41.894Z,96840.20
2022-09-26T01:38:28.828Z,96834.02
2022-09-26T01:41:29.430Z,96832.08
2022-09-26T01:44:06.598Z,96841.24
2022-09-26T01:47:11.547Z,96841.64
2022-09-26T01:50:03.779Z,96837.38
2022-09-26T01:52:57.094Z,96827.80
2022-09-26T01:55:31.233Z,96819.16
2022-09-26T01:58:11.124Z,96812.02
2022-09-26T02:00:43.773Z,96808.21
2022-09-26T02:03:16.526Z,96810.21
2022-09-26T02:06:03.344Z,96806.97
2022-09-26T02:08:38.538Z,96802.98
2022-09-26T02:11:25.689Z,96793.48
2022-09-26T02:14:12.951Z,96788.42
2022-09-26T02:16:48.265Z,96793.17
2022-09-26T02:19:27.983Z,96804.69
2022-09-26T02:21:58.892Z,96808.56
2022-09-26T02:24:28.831Z,96805.44
2022-09-26T02:26:57.596Z,96801.48
2022-09-26T02:29:26.531Z,96794.98
2022-09-26T02:31:58.694Z,96792.15
2022-09-26T02:34:27.083Z,96792.93
2022-09-26T02:36:57.497Z,96793.11
2022-09-26T02:39:25.374Z,96795.73
2022-09-26T02:41:59.468Z,96796.00
2022-09-26T02:44:48.777Z,96792.67
2022-09-26T02:47:37.779Z,96793.92
2022-09-26T02:50:39.419Z,96791.36
2022-09-26T02:53:16.274Z,96778.06
2022-09-26T02:56:13.583Z,96770.68
2022-09-26T02:58:55.107Z,96771.88
2022-09-26T03:01:36.799Z,96778.21
2022-09-26T03:04:23.632Z,96778.65
2022-09-26T03:06:56.632Z,96772.11
2022-09-26T03:09:26.796Z,96763.50
2022-09-26T03:11:57.153Z,96759.69
2022-09-26T03:14:25.329Z,96759.86
2022-09-26T03:16:53.898Z,96759.79
2022-09-26T03:19:39.353Z,96757.94
2022-09-26T03:22:07.757Z,96745.15
2022-09-26T03:24:37.296Z,96749.02
2022-09-26T03:27:06.260Z,96748.38
2022-09-26T03:29:34.226Z,96745.59
2022-09-26T03:32:02.635Z,96742.27
2022-09-26T03:34:30.930Z,96735.95
2022-09-26T03:36:58.783Z,96729.24
2022-09-26T03:39:26.705Z,96724.21
2022-09-26T03:41:58.450Z,96723.94
2022-09-26T03:44:26.444Z,96723.43
2022-09-26T03:46:54.324Z,96714.73
2022-09-26T03:49:22.128Z,96710.40
2022-09-26T03:51:50.155Z,96701.08
2022-09-26T03:54:18.004Z,96693.74
2022-09-26T03:56:46.049Z,96688.98
2022-09-26T03:59:14.154Z,96691.02
2022-09-26T04:01:42.197Z,96695.02
2022-09-26T04:04:10.179Z,96699.25
2022-09-26T04:06:38.088Z,96700.23
2022-09-26T04:09:06.001Z,96703.92
2022-09-26T04:11:33.976Z,96707.43
2022-09-26T04:14:01.855Z,96705.30
2022-09-26T04:16:30.758Z,96706.50
2022-09-26T04:18:58.833Z,96706.98
2022-09-26T04:21:29.934Z,96700.34
2022-09-26T04:23:58.217Z,96698.43
2022-09-26T04:26:26.241Z,96690.79
2022-09-26T04:28:57.269Z,96690.75
2022-09-26T04:31:28.034Z,96690.16
2022-09-26T04:33:56.153Z,96679.79
2022-09-26T04:36:24.384Z,96677.65
2022-09-26T04:38:52.186Z,96677.61
2022-09-26T04:41:22.010Z,96682.58
2022-09-26T04:43:50.234Z,96684.96
2022-09-26T04:46:29.586Z,96689.95
2022-09-26T04:49:00.749Z,96679.79
2022-09-26T04:51:31.633Z,96674.79
2022-09-26T04:53:59.641Z,96672.88
2022-09-26T04:56:29.428Z,96680.58
2022-09-26T04:58:59.355Z,96678.41
2022-09-26T05:01:27.498Z,96678.94
2022-09-26T05:03:56.319Z,96675.20
2022-09-26T05:06:24.368Z,96669.14
2022-09-26T05:08:52.230Z,96660.63
2022-09-26T05:11:21.568Z,96655.90
2022-09-26T05:13:53.632Z,96652.48
2022-09-26T05:16:22.634Z,96653.60
2022-09-26T05:18:52.360Z,96652.17
2022-09-26T05:21:20.797Z,96649.39
2022-09-26T05:24:07.250Z,96645.39
2022-09-26T05:26:46.550Z,96645.39
2022-09-26T05:29:15.175Z,96644.45
2022-09-26T05:31:43.536Z,96642.27
2022-09-26T05:34:18.740Z,96641.55
2022-09-26T05:36:47.949Z,96636.57
2022-09-26T05:39:37.877Z,96636.70
2022-09-26T05:42:09.531Z,96639.30
2022-09-26T05:44:39.936Z,96641.33
2022-09-26T05:47:09.038Z,96641.27
2022-09-26T05:49:37.105Z,96638.09
2022-09-26T05:52:05.093Z,96633.88
2022-09-26T05:54:33.014Z,96634.30
2022-09-26T05:57:00.901Z,96627.87
2022-09-26T05:59:28.844Z,96632.04
2022-09-26T06:01:58.742Z,96636.39
2022-09-26T06:04:26.775Z,96637.87
2022-09-26T06:06:55.104Z,96638.21
2022-09-26T06:09:23.395Z,96637.13
2022-09-26T06:11:51.378Z,96632.69
2022-09-26T06:14:19.237Z,96626.19
2022-09-26T06:16:48.902Z,96622.38
2022-09-26T06:19:22.002Z,96620.33
2022-09-26T06:21:50.967Z,96622.39
2022-09-26T06:24:20.371Z,96624.30
2022-09-26T06:26:48.456Z,96629.89
2022-09-26T06:29:16.475Z,96630.96
2022-09-26T06:31:44.963Z,96626.47
2022-09-26T06:34:15.042Z,96622.10
2022-09-26T06:36:42.958Z,96626.11
2022-09-26T06:39:10.812Z,96627.98
2022-09-26T06:41:38.840Z,96633.32
2022-09-26T06:44:06.732Z,96631.31
2022-09-26T06:46:35.334Z,96636.10
2022-09-26T06:49:03.346Z,96640.27
2022-09-26T06:51:32.092Z,96634.29
2022-09-26T06:54:00.619Z,96632.45
2022-09-26T06:56:28.491Z,96630.86
2022-09-26T06:58:56.422Z,96625.86
2022-09-26T07:01:24.481Z,96619.12
2022-09-26T07:03:54.340Z,96616.30
2022-09-26T07:06:22.574Z,96614.70
2022-09-26T07:09:12.027Z,96618.98
2022-09-26T07:12:10.048Z,96615.31
2022-09-26T07:14:29.767Z,96612.30
2022-09-26T07:16:57.607Z,96618.30
2022-09-26T07:19:25.819Z,96617.55
2022-09-26T07:21:55.188Z,96617.21
2022-09-26T07:24:23.143Z,96613.52
2022-09-26T07:26:50.954Z,96617.58
2022-09-26T07:29:18.719Z,96617.83
2022-09-26T07:31:46.825Z,96614.21
2022-09-26T07:34:18.374Z,96614.61
2022-09-26T07:36:47.663Z,96612.39
2022-09-26T07:39:16.710Z,96610.98
2022-09-26T07:41:46.069Z,96596.88
2022-09-26T07:47:22.989Z,96584.70
2022-09-26T07:50:09.417Z,96587.73
2022-09-26T07:52:37.801Z,96584.86
2022-09-26T07:55:07.670Z,96576.68
2022-09-26T07:57:35.788Z,96568.98
2022-09-26T08:00:12.994Z,96575.73
2022-09-26T08:02:42.926Z,96574.38
2022-09-26T08:05:12.558Z,96573.43
2022-09-26T08:07:42.231Z,96571.19
2022-09-26T08:10:19.160Z,96570.18
2022-09-26T08:12:47.760Z,96564.81
2022-09-26T08:15:16.249Z,96555.09
2022-09-26T08:17:44.311Z,96550.71
2022-09-26T08:20:12.930Z,96557.27
2022-09-26T08:22:40.765Z,96556.52
2022-09-26T08:25:09.333Z,96547.75
2022-09-26T08:27:37.334Z,96543.74
2022-09-26T08:30:05.975Z,96542.98
2022-09-26T08:32:34.120Z,96542.30
2022-09-26T08:35:02.024Z,96538.52
2022-09-26T08:37:31.246Z,96537.65
2022-09-26T08:40:00.899Z,96534.64
2022-09-26T08:42:47.064Z,96527.35
2022-09-26T08:45:47.779Z,96524.36
2022-09-26T08:48:43.595Z,96524.80
2022-09-26T08:51:29.215Z,96524.90
2022-09-26T08:54:13.338Z,96526.65
2022-09-26T08:56:47.367Z,96524.62
2022-09-26T08:59:43.863Z,96519.38
2022-09-26T09:02:26.395Z,96517.58
2022-09-26T09:05:00.156Z,96511.83
2022-09-26T09:07:31.185Z,96512.64
2022-09-26T09:10:08.290Z,96503.27
2022-09-26T09:12:48.381Z,96500.23
2022-09-26T09:15:29.163Z,96496.92
2022-09-26T09:18:21.633Z,96502.47
2022-09-26T09:21:15.653Z,96505.54
2022-09-26T09:23:43.413Z,96497.22
2022-09-26T09:29:26.480Z,96492.50
2022-09-26T09:31:57.311Z,96489.73
2022-09-26T09:34:40.147Z,96486.90
2022-09-26T09:37:17.140Z,96477.95
2022-09-26T09:39:49.436Z,96474.88
2022-09-26T09:42:20.362Z,96479.44
2022-09-26T09:45:00.817Z,96475.77
2022-09-26T09:47:29.752Z,96470.25
2022-09-26T09:49:59.956Z,96473.17
2022-09-26T09:52:27.826Z,96475.27
2022-09-26T09:55:33.635Z,96478.73
2022-09-26T09:58:07.261Z,96487.40
2022-09-26T10:00:41.636Z,96486.20
2022-09-26T10:03:27.733Z,96480.95
2022-09-26T10:06:02.112Z,96477.84
2022-09-26T10:08:32.715Z,96475.63
2022-09-26T10:11:08.808Z,96473.69
2022-09-26T10:13:39.967Z,96471.11
2022-09-26T10:16:10.361Z,96476.89
2022-09-26T10:19:06.389Z,96485.69
2022-09-26T10:21:40.703Z,96486.48
2022-09-26T10:24:24.422Z,96492.60
2022-09-26T10:26:52.493Z,96495.77
2022-09-26T10:29:23.274Z,96497.27
2022-09-26T10:32:00.607Z,96502.21
2022-09-26T10:34:34.759Z,96505.61
2022-09-26T10:37:28.824Z,96505.30
2022-09-26T10:40:17.546Z,96500.95
2022-09-26T10:42:48.661Z,96511.54
2022-09-26T10:45:21.413Z,96523.09
2022-09-26T10:47:51.411Z,96537.91
2022-09-26T10:50:26.218Z,96536.19
2022-09-26T10:53:10.122Z,96545.30
2022-09-26T10:55:44.222Z,96550.93
2022-09-26T10:58:22.174Z,96562.59
2022-09-26T11:00:51.734Z,96562.41
2022-09-26T11:03:46.289Z,96545.30
2022-09-26T11:06:35.326Z,96544.20
2022-09-26T11:09:04.887Z,96550.69
2022-09-26T11:11:38.269Z,96549.58
2022-09-26T11:14:08.695Z,96551.61
2022-09-26T11:16:48.966Z,96552.29
2022-09-26T11:19:44.766Z,96554.90
2022-09-26T11:22:34.627Z,96547.11
2022-09-26T11:25:22.665Z,96544.21
2022-09-26T11:28:06.210Z,96543.09
2022-09-26T11:30:39.885Z,96548.98
2022-09-26T11:33:13.597Z,96557.44
2022-09-26T11:35:53.060Z,96564.35
2022-09-26T11:38:42.557Z,96580.83
2022-09-26T11:41:39.045Z,96597.52
2022-09-26T11:44:21.908Z,96592.86
2022-09-26T11:47:17.132Z,96578.52
2022-09-26T11:50:00.409Z,96567.79
2022-09-26T11:52:30.976Z,96551.38
2022-09-26T11:54:58.948Z,96549.23
2022-09-26T11:57:42.131Z,96547.04
2022-09-26T12:00:10.246Z,96537.17
2022-09-26T12:02:57.535Z,96533.67
2022-09-26T12:05:50.591Z,96524.48
2022-09-26T12:08:59.776Z,96521.98
2022-09-26T12:11:37.586Z,96521.73
2022-09-26T12:14:36.924Z,96523.92
2022-09-26T12:17:36.497Z,96535.27
2022-09-26T12:20:49.633Z,96534.40
2022-09-26T12:23:34.882Z,96526.41
2022-09-26T12:26:29.053Z,96525.25
2022-09-26T12:29:16.359Z,96526.45
2022-09-26T12:32:04.220Z,96527.34
2022-09-26T12:35:05.070Z,96518.66
2022-09-26T12:38:04.103Z,96520.40
2022-09-26T12:41:13.861Z,96516.70
2022-09-26T12:44:04.816Z,96509.90
2022-09-26T12:47:07.312Z,96493.44
2022-09-26T12:49:45.226Z,96488.91
2022-09-26T12:52:31.932Z,96491.38
2022-09-26T12:55:06.229Z,96489.04
2022-09-26T12:57:57.258Z,96494.68
2022-09-26T13:00:25.499Z,96492.78
2022-09-26T13:03:17.677Z,96474.90
2022-09-26T13:05:45.463Z,96453.86
2022-09-26T13:08:13.388Z,96446.32
2022-09-26T13:10:56.313Z,96446.23
2022-09-26T13:13:48.720Z,96453.27
2022-09-26T13:16:21.204Z,96458.42
2022-09-26T13:18:56.500Z,96461.70
2022-09-26T13:21:44.146Z,96468.46
2022-09-26T13:24:21.677Z,96469.59
2022-09-26T13:27:04.410Z,96469.22
2022-09-26T13:29:37.631Z,96474.27
2022-09-26T13:32:24.694Z,96473.77
2022-09-26T13:35:13.557Z,96469.48
2022-09-26T13:38:00.162Z,96467.49
2022-09-26T13:40:38.258Z,96465.78
2022-09-26T13:43:38.622Z,96464.49
2022-09-26T13:46:25.367Z,96454.16
2022-09-26T13:49:15.155Z,96454.14
2022-09-26T13:51:51.109Z,96452.67
2022-09-26T13:54:31.445Z,96449.08
2022-09-26T13:56:59.388Z,96446.40
2022-09-26T13:59:51.664Z,96435.83
2022-09-26T14:02:31.938Z,96432.49
2022-09-26T14:05:03.238Z,96430.34
2022-09-26T14:08:11.049Z,96428.89
2022-09-26T14:10:41.984Z,96420.67
2022-09-26T14:13:09.826Z,96420.99
2022-09-26T14:15:46.929Z,96425.58
2022-09-26T14:18:25.666Z,96427.41
2022-09-26T14:21:16.109Z,96426.16
2022-09-26T14:23:49.531Z,96428.12
2022-09-26T14:26:28.403Z,96422.22
2022-09-26T14:29:25.365Z,96422.91
2022-09-26T14:32:01.796Z,96419.09
2022-09-26T14:34:42.158Z,96415.08
2022-09-26T14:37:25.749Z,96414.17
2022-09-26T14:40:08.282Z,96414.27
2022-09-26T14:42:55.102Z,96411.48
2022-09-26T14:45:44.615Z,96404.09
2022-09-26T14:48:36.327Z,96403.02
2022-09-26T14:51:11.129Z,96397.55
2022-09-26T14:53:48.057Z,96396.31
2022-09-26T14:56:29.499Z,96395.56
2022-09-26T14:59:16.163Z,96391.21
2022-09-26T15:01:45.550Z,96388.85
2022-09-26T15:04:21.008Z,96389.20
2022-09-26T15:06:55.621Z,96389.69
2022-09-26T15:09:45.304Z,96386.81
2022-09-26T15:12:48.227Z,96386.06
2022-09-26T15:15:30.937Z,96386.42
2022-09-26T15:18:17.854Z,96389.79
2022-09-26T15:20:54.999Z,96386.89
2022-09-26T15:23:28.275Z,96388.56
2022-09-26T15:26:00.564Z,96383.36
2022-09-26T15:28:34.425Z,96381.73
2022-09-26T15:31:22.573Z,96379.64
2022-09-26T15:34:10.005Z,96383.77
2022-09-26T15:36:41.175Z,96384.12
2022-09-26T15:39:31.279Z,96391.18
2022-09-26T15:42:20.000Z,96385.77
2022-09-26T15:44:54.594Z,96384.03
2022-09-26T15:47:40.352Z,96373.27
2022-09-26T15:50:17.172Z,96370.38
2022-09-26T15:53:14.012Z,96369.89
2022-09-26T15:55:54.475Z,96374.00
2022-09-26T15:58:35.322Z,96374.84
2022-09-26T16:01:03.904Z,96390.16
2022-09-26T16:03:46.008Z,96392.84
2022-09-26T16:06:20.645Z,96393.77
2022-09-26T16:08:58.200Z,96394.73
2022-09-26T16:11:26.770Z,96396.73
2022-09-26T16:13:56.742Z,96392.21
2022-09-26T16:16:31.912Z,96401.05
2022-09-26T16:19:04.617Z,96410.18
2022-09-26T16:21:36.662Z,96415.14
2022-09-26T16:24:43.140Z,96415.20
2022-09-26T16:27:23.994Z,96408.50
2022-09-26T16:29:53.110Z,96408.06
2022-09-26T16:32:23.039Z,96403.17
2022-09-26T16:34:51.272Z,96395.94
2022-09-26T16:37:22.947Z,96396.31
2022-09-26T16:39:56.820Z,96399.09
2022-09-26T16:42:31.286Z,96402.29
2022-09-26T16:45:04.991Z,96400.02
2022-09-26T16:47:47.865Z,96396.69
2022-09-26T16:50:17.458Z,96401.05
2022-09-26T16:52:46.193Z,96407.08
2022-09-26T16:55:14.589Z,96415.31
2022-09-26T16:57:55.766Z,96421.17
2022-09-26T17:00:52.175Z,96415.38
2022-09-26T17:03:23.654Z,96405.34
2022-09-26T17:05:55.681Z,96394.45
2022-09-26T17:08:25.458Z,96398.66
2022-09-26T17:10:54.207Z,96396.21
2022-09-26T17:13:25.660Z,96393.57
2022-09-26T17:15:57.684Z,96391.73
2022-09-26T17:18:29.705Z,96385.44
2022-09-26T17:20:59.278Z,96392.70
2022-09-26T17:23:41.084Z,96392.77
2022-09-26T17:26:19.843Z,96385.29
2022-09-26T17:28:48.158Z,96385.82
2022-09-26T17:31:21.352Z,96382.60
2022-09-26T17:33:53.375Z,96387.72
2022-09-26T17:36:31.866Z,96390.48
2022-09-26T17:39:01.123Z,96385.02
2022-09-26T17:41:32.824Z,96380.91
2022-09-26T17:44:01.175Z,96382.73
2022-09-26T17:46:30.498Z,96382.59
2022-09-26T17:48:59.491Z,96385.66
2022-09-26T17:51:27.528Z,96383.90
2022-09-26T17:53:57.494Z,96382.17
2022-09-26T17:56:26.523Z,96384.58
2022-09-26T17:58:57.111Z,96382.82
2022-09-26T18:01:33.559Z,96372.22
2022-09-26T18:04:07.460Z,96379.94
2022-09-26T18:06:37.001Z,96389.30
2022-09-26T18:09:10.279Z,96386.06
2022-09-26T18:11:39.179Z,96372.98
2022-09-26T18:14:14.693Z,96366.23
2022-09-26T18:16:44.927Z,96362.78
2022-09-26T18:19:12.963Z,96358.34
2022-09-26T18:21:41.190Z,96358.80
2022-09-26T18:24:19.239Z,96354.39
2022-09-26T18:26:50.836Z,96348.30
2022-09-26T18:29:29.437Z,96339.89
2022-09-26T18:31:58.988Z,96334.92
2022-09-26T18:34:26.961Z,96330.34
2022-09-26T18:37:00.283Z,96324.79
2022-09-26T18:39:30.476Z,96322.26
2022-09-26T18:42:06.263Z,96323.81
2022-09-26T18:44:35.343Z,96321.12
2022-09-26T18:47:08.173Z,96318.04
2022-09-26T18:49:38.206Z,96320.64
2022-09-26T18:52:11.969Z,96315.08
2022-09-26T18:54:43.901Z,96312.05
2022-09-26T18:57:31.818Z,96315.35
2022-09-26T19:00:00.384Z,96317.77
2022-09-26T19:02:35.104Z,96317.23
2022-09-26T19:05:05.471Z,96309.13
2022-09-26T19:07:33.549Z,96312.34
2022-09-26T19:10:01.691Z,96310.16
2022-09-26T19:12:31.580Z,96310.41
2022-09-26T19:15:00.504Z,96320.27
2022-09-26T19:17:28.599Z,96320.77
2022-09-26T19:19:56.448Z,96325.26
2022-09-26T19:22:26.244Z,96330.77
2022-09-26T19:24:59.413Z,96337.46
2022-09-26T19:27:38.919Z,96340.27
2022-09-26T19:30:13.726Z,96334.43
2022-09-26T19:32:49.395Z,96321.42
2022-09-26T19:35:35.985Z,96314.03
2022-09-26T19:38:15.755Z,96323.94
2022-09-26T19:40:48.418Z,96325.02
2022-09-26T19:43:17.925Z,96330.85
2022-09-26T19:45:47.746Z,96332.93
2022-09-26T19:48:22.147Z,96332.99
2022-09-26T19:50:52.781Z,96319.95
2022-09-26T19:53:23.909Z,96317.90
2022-09-26T19:55:52.335Z,96326.94
2022-09-26T19:58:24.272Z,96335.36
2022-09-26T20:00:55.863Z,96333.08
2022-09-26T20:03:39.954Z,96333.41
2022-09-26T20:06:13.886Z,96333.75
2022-09-26T20:08:42.271Z,96335.31
2022-09-26T20:11:10.449Z,96334.38
2022-09-26T20:13:56.979Z,96328.23
2022-09-26T20:16:25.152Z,96324.67
2022-09-26T20:18:55.805Z,96324.87
2022-09-26T20:21:29.713Z,96324.85
2022-09-26T20:24:00.739Z,96322.27
2022-09-26T20:26:30.681Z,96325.29
2022-09-26T20:28:58.549Z,96321.01
2022-09-26T20:31:29.037Z,96321.96
2022-09-26T20:34:00.122Z,96323.57
2022-09-26T20:36:32.225Z,96320.70
2022-09-26T20:39:04.321Z,96322.46
2022-09-26T20:41:35.929Z,96318.52
2022-09-26T20:44:12.536Z,96319.29
2022-09-26T20:46:48.662Z,96318.63
2022-09-26T20:49:25.088Z,96320.70
2022-09-26T20:51:53.706Z,96321.96
2022-09-26T20:54:25.430Z,96319.21
2022-09-26T20:56:54.738Z,96319.67
2022-09-26T20:59:24.034Z,96320.34
2022-09-26T21:01:54.240Z,96324.54
2022-09-26T21:04:31.127Z,96327.31
2022-09-26T21:06:59.024Z,96330.20
2022-09-26T21:09:26.925Z,96333.26
2022-09-26T21:11:54.820Z,96334.44
2022-09-26T21:14:22.659Z,96334.42
2022-09-26T21:16:52.560Z,96335.38
2022-09-26T21:19:25.069Z,96333.70
2022-09-26T21:21:53.384Z,96327.58
2022-09-26T21:24:31.009Z,96328.04
2022-09-26T21:26:58.900Z,96324.60
2022-09-26T21:29:27.620Z,96330.83
2022-09-26T21:32:02.971Z,96328.36
2022-09-26T21:34:33.226Z,96329.30
2022-09-26T21:37:03.939Z,96329.66
2022-09-26T21:39:31.980Z,96328.41
2022-09-26T21:42:04.428Z,96325.80
2022-09-26T21:44:48.072Z,96325.73
2022-09-26T21:47:15.996Z,96319.29
2022-09-26T21:49:43.988Z,96317.11
2022-09-26T21:52:25.172Z,96312.54
2022-09-26T21:54:53.587Z,96306.71
2022-09-26T21:57:29.079Z,96307.10
2022-09-26T21:59:58.210Z,96305.49
2022-09-26T22:02:27.669Z,96301.63
2022-09-26T22:04:55.701Z,96299.71
2022-09-26T22:07:23.905Z,96301.73
2022-09-26T22:09:52.086Z,96295.48
2022-09-26T22:12:20.260Z,96293.14
2022-09-26T22:14:48.068Z,96289.70
2022-09-26T22:17:16.593Z,96286.41
2022-09-26T22:19:45.181Z,96285.36
2022-09-26T22:22:13.255Z,96281.91
2022-09-26T22:24:41.144Z,96276.34
2022-09-26T22:27:09.377Z,96271.84
2022-09-26T22:29:37.187Z,96273.77
2022-09-26T22:32:05.171Z,96271.39
2022-09-26T22:34:33.348Z,96270.70
2022-09-26T22:37:01.192Z,96259.36
2022-09-26T22:39:29.050Z,96243.98
2022-09-26T22:41:57.017Z,96239.21
2022-09-26T22:44:24.829Z,96236.70
2022-09-26T22:46:52.652Z,96230.98
2022-09-26T22:49:21.020Z,96226.81
2022-09-26T22:51:48.969Z,96228.98
2022-09-26T22:54:16.860Z,96227.66
2022-09-26T22:56:44.756Z,96221.90
2022-09-26T22:59:12.713Z,96216.72
2022-09-26T23:01:40.771Z,96215.91
2022-09-26T23:04:08.736Z,96212.48
2022-09-26T23:06:36.678Z,96204.08
2022-09-26T23:09:04.704Z,96199.16
2022-09-26T23:11:32.633Z,96191.91
2022-09-26T23:14:00.618Z,96187.54
2022-09-26T23:16:28.797Z,96178.42
2022-09-26T23:18:57.582Z,96168.11
2022-09-26T23:21:27.820Z,96156.86
2022-09-26T23:23:58.338Z,96149.73
2022-09-26T23:26:28.635Z,96148.19
2022-09-26T23:28:58.223Z,96151.02
2022-09-26T23:31:27.787Z,96156.23
2022-09-26T23:33:57.480Z,96161.09
2022-09-26T23:36:25.782Z,96165.66
2022-09-26T23:38:53.885Z,96164.64
2022-09-26T23:41:21.681Z,96160.72
2022-09-26T23:43:49.894Z,96154.83
2022-09-26T23:46:17.948Z,96155.70
2022-09-26T23:48:45.933Z,96159.29
2022-09-26T23:51:13.856Z,96162.28
2022-09-26T23:53:41.653Z,96159.39
2022-09-26T23:56:12.309Z,96159.49
2022-09-26T23:58:41.144Z,96153.42
